Time;durP1;ratioP1;P1;durP2;ratioP2;P2;SDS_P1;SDS_P2;PMS_P1;PMS_P2;Temp;Humidity;BMP_temperature;BMP_pressure;BME280_temperature;BME280_humidity;BME280_pressure;Samples;Min_cycle;Max_cycle;Signal;HPM_P1;HPM_P2
2022/03/04 00:00:43;;;;;;;2.47;0.40;;;21.70;99.90;;;;;;5075234;28;20032;-82
2022/03/04 00:03:12;;;;;;;4.35;0.90;;;21.70;99.90;;;;;;5093436;28;20354;-83
2022/03/04 00:05:42;;;;;;;2.28;0.68;;;21.80;99.90;;;;;;5092840;28;20545;-83
2022/03/04 00:08:10;;;;;;;6.88;1.58;;;21.90;99.90;;;;;;5093351;28;20078;-83
2022/03/04 00:10:39;;;;;;;4.55;0.95;;;22.00;99.90;;;;;;5093463;28;20047;-75
2022/03/04 00:13:06;;;;;;;7.22;1.75;;;22.00;99.90;;;;;;5093326;28;20022;-83
2022/03/04 00:15:36;;;;;;;5.28;1.23;;;22.00;99.90;;;;;;5093125;28;20055;-82
2022/03/04 00:18:04;;;;;;;4.13;1.02;;;22.10;99.90;;;;;;5093094;28;20057;-83
2022/03/04 00:20:31;;;;;;;3.33;0.65;;;22.20;99.90;;;;;;5093381;28;20508;-84
2022/03/04 00:22:58;;;;;;;5.22;0.80;;;22.30;99.90;;;;;;5093253;28;20024;-83
2022/03/04 00:25:27;;;;;;;6.45;1.25;;;22.40;99.90;;;;;;5093049;28;20485;-84
2022/03/04 00:27:54;;;;;;;7.75;1.33;;;22.40;99.90;;;;;;5092833;28;20036;-83
2022/03/04 00:30:21;;;;;;;4.00;0.82;;;22.40;99.90;;;;;;5093182;28;20028;-83
2022/03/04 00:32:49;;;;;;;7.25;1.30;;;22.50;99.90;;;;;;5093379;28;20070;-84
2022/03/04 00:35:16;;;;;;;7.57;1.60;;;22.40;99.90;;;;;;5091951;28;20483;-84
2022/03/04 00:37:43;;;;;;;3.88;0.63;;;22.40;99.90;;;;;;5092851;28;20024;-81
2022/03/04 00:40:14;;;;;;;2.38;0.52;;;22.40;99.90;;;;;;5093025;28;20033;-82
2022/03/04 00:42:42;;;;;;;2.88;0.88;;;22.40;99.90;;;;;;5093205;28;20473;-83
2022/03/04 00:45:10;;;;;;;8.48;1.13;;;22.30;99.90;;;;;;5093093;28;20560;-82
2022/03/04 00:47:38;;;;;;;4.05;0.95;;;22.30;99.90;;;;;;5092810;28;20384;-82
2022/03/04 00:50:07;;;;;;;1.25;0.65;;;22.20;99.90;;;;;;5092809;28;20127;-78
2022/03/04 00:52:35;;;;;;;2.63;0.68;;;22.10;99.90;;;;;;5093055;28;20032;-83
2022/03/04 00:55:04;;;;;;;6.43;1.13;;;22.10;99.90;;;;;;5092750;28;20431;-84
2022/03/04 00:57:31;;;;;;;5.55;0.93;;;22.10;99.90;;;;;;5092411;28;20665;-76
2022/03/04 00:59:58;;;;;;;5.03;0.60;;;22.10;99.90;;;;;;5093058;28;20020;-83
2022/03/04 01:02:26;;;;;;;7.88;1.00;;;22.10;99.90;;;;;;5092875;28;20024;-84
2022/03/04 01:04:53;;;;;;;3.05;1.00;;;22.10;99.90;;;;;;5092799;28;20086;-82
2022/03/04 01:07:20;;;;;;;5.63;1.23;;;22.20;99.90;;;;;;5092635;28;20362;-83
2022/03/04 01:09:47;;;;;;;1.17;0.45;;;22.20;99.90;;;;;;5092856;28;20051;-83
2022/03/04 01:12:15;;;;;;;7.25;0.50;;;22.30;99.90;;;;;;5092785;28;20031;-82
2022/03/04 01:14:42;;;;;;;1.52;0.60;;;22.20;99.90;;;;;;5092764;28;20051;-83
2022/03/04 01:17:09;;;;;;;5.32;1.10;;;22.30;99.90;;;;;;5095787;28;20477;-75
2022/03/04 01:19:37;;;;;;;5.57;0.63;;;22.30;99.90;;;;;;5096366;28;20032;-83
2022/03/04 01:22:04;;;;;;;2.17;0.70;;;22.40;99.90;;;;;;5096258;28;20024;-76
2022/03/04 01:24:31;;;;;;;5.05;1.15;;;22.50;99.90;;;;;;5096290;28;20023;-83
2022/03/04 01:26:59;;;;;;;3.20;0.50;;;22.50;99.90;;;;;;5096343;28;20392;-83
2022/03/04 01:29:26;;;;;;;2.90;0.75;;;22.50;99.90;;;;;;5096125;28;20024;-83
2022/03/04 01:31:53;;;;;;;6.38;1.35;;;22.50;99.90;;;;;;5096069;28;20055;-84
2022/03/04 01:34:20;;;;;;;2.25;0.40;;;22.40;99.90;;;;;;5096155;28;20028;-82
2022/03/04 01:36:48;;;;;;;4.47;0.70;;;22.40;99.90;;;;;;5096370;28;20141;-83
2022/03/04 01:39:15;;;;;;;1.92;0.40;;;22.30;99.90;;;;;;5095667;28;20115;-83
2022/03/04 01:41:42;;;;;;;2.67;0.63;;;22.40;99.90;;;;;;5096242;28;20473;-83
2022/03/04 01:44:10;;;;;;;3.35;0.60;;;22.40;99.90;;;;;;5095745;28;20078;-84
2022/03/04 01:46:37;;;;;;;3.67;0.47;;;22.40;99.90;;;;;;5095621;28;20039;-82
2022/03/04 01:49:05;;;;;;;4.82;0.52;;;22.40;99.90;;;;;;5095416;28;20056;-79
2022/03/04 01:51:32;;;;;;;3.47;0.80;;;22.40;99.90;;;;;;5079799;28;20073;-77
2022/03/04 01:53:59;;;;;;;7.20;0.65;;;22.40;99.90;;;;;;5062638;28;20110;-73
2022/03/04 01:56:27;;;;;;;2.95;0.75;;;22.40;99.90;;;;;;5063842;28;20073;-82
2022/03/04 01:58:54;;;;;;;3.60;0.70;;;22.40;99.90;;;;;;5065822;28;20138;-76
2022/03/04 02:01:22;;;;;;;3.30;0.70;;;22.40;99.90;;;;;;5063808;28;20903;-77
2022/03/04 02:03:49;;;;;;;3.78;0.80;;;22.50;99.90;;;;;;5062373;28;20217;-75
2022/03/04 02:06:17;;;;;;;6.78;1.00;;;22.60;99.90;;;;;;5066877;28;20044;-83
2022/03/04 02:08:44;;;;;;;3.38;0.70;;;22.60;99.90;;;;;;5085634;28;20497;-83
2022/03/04 02:11:12;;;;;;;3.50;0.77;;;22.60;99.90;;;;;;5074789;28;20032;-83
2022/03/04 02:13:43;;;;;;;2.35;0.60;;;22.60;99.90;;;;;;5077041;28;20023;-83
2022/03/04 02:16:40;;;;;;;0.77;0.40;;;22.50;99.90;;;;;;5075733;28;20021;-82
2022/03/04 02:19:08;;;;;;;4.15;1.00;;;22.50;99.90;;;;;;5075151;28;20092;-82
2022/03/04 02:21:36;;;;;;;2.30;0.60;;;22.50;99.90;;;;;;5074070;28;20086;-74
2022/03/04 02:24:04;;;;;;;2.53;1.10;;;22.50;99.90;;;;;;5075211;28;20469;-82
2022/03/04 02:26:31;;;;;;;2.45;0.80;;;22.50;99.90;;;;;;5073364;28;20064;-81
2022/03/04 02:28:58;;;;;;;2.17;0.73;;;22.40;99.90;;;;;;5072801;28;20039;-82
2022/03/04 02:31:26;;;;;;;3.20;0.60;;;22.40;99.90;;;;;;5072446;28;20039;-77
2022/03/04 02:33:53;;;;;;;3.00;1.10;;;22.50;99.90;;;;;;5086474;28;20044;-80
2022/03/04 02:36:20;;;;;;;3.70;0.60;;;22.50;99.90;;;;;;5076067;28;20028;-74
2022/03/04 02:38:48;;;;;;;2.58;0.73;;;22.40;99.90;;;;;;5071723;28;20107;-74
2022/03/04 02:41:15;;;;;;;1.60;0.85;;;22.30;99.90;;;;;;5072028;28;20150;-82
2022/03/04 02:43:42;;;;;;;2.10;0.70;;;22.30;99.90;;;;;;5075669;28;20050;-78
2022/03/04 02:46:10;;;;;;;1.80;0.82;;;22.40;99.90;;;;;;5082642;28;20033;-74
2022/03/04 02:48:37;;;;;;;3.25;0.93;;;22.40;99.90;;;;;;5071958;28;20157;-79
2022/03/04 02:51:05;;;;;;;3.20;0.80;;;22.40;99.90;;;;;;5072432;28;20138;-74
2022/03/04 02:53:32;;;;;;;2.40;0.80;;;22.50;99.90;;;;;;5072333;28;20130;-79
2022/03/04 02:56:00;;;;;;;2.53;0.47;;;22.60;99.90;;;;;;5076772;28;20117;-80
2022/03/04 02:58:27;;;;;;;3.38;0.65;;;22.60;99.90;;;;;;5072020;28;20031;-79
2022/03/04 03:00:54;;;;;;;3.60;0.85;;;22.70;99.90;;;;;;5074657;28;20105;-82
2022/03/04 03:03:22;;;;;;;1.95;0.80;;;22.70;99.90;;;;;;5071770;28;20039;-75
2022/03/04 03:05:49;;;;;;;1.95;0.40;;;22.80;99.90;;;;;;5088638;28;20035;-79
2022/03/04 03:08:16;;;;;;;0.85;0.32;;;22.70;99.90;;;;;;5075712;28;20024;-77
2022/03/04 03:10:44;;;;;;;2.47;0.60;;;22.60;99.90;;;;;;5074736;28;20389;-77
2022/03/04 03:13:11;;;;;;;3.55;0.82;;;22.60;99.90;;;;;;5091407;28;20008;-80
2022/03/04 03:15:38;;;;;;;2.58;1.35;;;22.60;99.90;;;;;;5089691;28;20024;-81
2022/03/04 03:18:06;;;;;;;2.97;0.60;;;22.50;99.90;;;;;;5092778;28;20028;-75
2022/03/04 03:20:33;;;;;;;1.77;0.50;;;22.50;99.90;;;;;;5093616;28;20112;-81
2022/03/04 03:23:01;;;;;;;3.25;0.60;;;22.50;99.90;;;;;;5090286;28;20380;-82
2022/03/04 03:25:28;;;;;;;14.15;1.45;;;22.60;99.90;;;;;;5092684;28;20520;-79
2022/03/04 03:27:56;;;;;;;2.25;0.90;;;22.60;99.90;;;;;;5112234;27;20038;-78
2022/03/04 03:30:23;;;;;;;3.40;0.70;;;22.80;99.90;;;;;;5089798;28;20024;-82
2022/03/04 03:32:50;;;;;;;5.60;1.33;;;22.90;99.90;;;;;;5090403;28;20488;-84
2022/03/04 03:35:18;;;;;;;8.23;1.08;;;22.80;99.90;;;;;;5092924;28;20024;-85
2022/03/04 03:37:45;;;;;;;4.93;1.02;;;22.80;99.90;;;;;;5091448;28;20030;-85
2022/03/04 03:40:13;;;;;;;5.30;0.98;;;22.80;99.90;;;;;;5090145;28;20032;-81
2022/03/04 03:42:41;;;;;;;3.17;1.00;;;22.80;99.90;;;;;;5092047;28;20024;-84
2022/03/04 03:45:11;;;;;;;3.58;1.00;;;22.80;99.90;;;;;;5093076;28;20464;-85
2022/03/04 03:47:39;;;;;;;5.05;0.73;;;23.00;99.90;;;;;;5093176;28;20024;-85
2022/03/04 03:50:12;;;;;;;3.72;1.10;;;23.10;99.90;;;;;;5092682;28;20040;-79
2022/03/04 03:52:40;;;;;;;1.90;0.68;;;23.10;99.90;;;;;;5090393;28;20091;-82
2022/03/04 03:55:08;;;;;;;2.85;0.80;;;23.20;99.90;;;;;;5090536;28;20020;-84
2022/03/04 03:57:35;;;;;;;4.68;0.82;;;23.10;99.90;;;;;;5088216;28;20024;-79
2022/03/04 04:00:03;;;;;;;3.33;0.93;;;22.90;99.90;;;;;;5074545;28;20031;-81
2022/03/04 04:02:31;;;;;;;3.00;0.80;;;22.80;99.90;;;;;;5072486;28;20024;-85
2022/03/04 04:04:58;;;;;;;3.38;1.35;;;22.70;99.90;;;;;;5075130;28;20020;-84
2022/03/04 04:07:25;;;;;;;2.17;0.77;;;22.70;99.90;;;;;;5070781;28;20429;-83
2022/03/04 04:09:53;;;;;;;3.25;0.82;;;22.90;99.90;;;;;;5072405;28;20016;-79
2022/03/04 04:12:20;;;;;;;7.10;1.20;;;23.00;99.90;;;;;;5074992;28;20013;-83
2022/03/04 04:14:47;;;;;;;6.22;0.90;;;23.00;99.90;;;;;;5071027;28;20495;-84
2022/03/04 04:17:15;;;;;;;1.42;0.50;;;23.00;99.90;;;;;;5071595;28;20028;-83
2022/03/04 04:19:42;;;;;;;3.65;0.60;;;22.90;99.90;;;;;;5076087;28;20033;-80
2022/03/04 04:22:09;;;;;;;2.55;0.50;;;22.80;99.90;;;;;;5083060;28;20049;-77
2022/03/04 04:24:36;;;;;;;1.98;0.80;;;22.90;99.90;;;;;;5084461;28;20441;-81
2022/03/04 04:27:04;;;;;;;4.65;0.85;;;22.90;99.90;;;;;;5075631;28;20040;-83
2022/03/04 04:29:31;;;;;;;7.43;1.00;;;22.80;99.90;;;;;;5071658;28;20035;-86
2022/03/04 04:31:58;;;;;;;1.52;0.50;;;22.80;99.90;;;;;;5071525;28;20389;-76
2022/03/04 04:34:26;;;;;;;4.55;1.10;;;22.70;99.90;;;;;;5071616;28;20040;-82
2022/03/04 04:36:53;;;;;;;2.03;0.73;;;22.70;99.90;;;;;;5071584;28;20060;-83
2022/03/04 04:39:20;;;;;;;3.10;1.08;;;22.70;99.90;;;;;;5071810;28;20107;-81
2022/03/04 04:41:48;;;;;;;2.88;0.70;;;22.70;99.90;;;;;;5073151;28;20029;-84
2022/03/04 04:44:15;;;;;;;5.38;0.75;;;22.70;99.90;;;;;;5076816;28;20069;-80
2022/03/04 04:46:43;;;;;;;2.47;0.93;;;22.80;99.90;;;;;;5076511;28;20056;-82
2022/03/04 04:49:10;;;;;;;2.13;0.90;;;22.90;99.90;;;;;;5074731;28;20037;-80
2022/03/04 04:51:37;;;;;;;6.07;1.70;;;23.00;99.90;;;;;;5074361;28;20060;-78
2022/03/04 04:54:05;;;;;;;2.40;0.80;;;23.20;99.90;;;;;;5074886;28;20029;-74
2022/03/04 04:56:32;;;;;;;3.78;1.23;;;23.20;99.90;;;;;;5073782;28;20044;-75
2022/03/04 04:58:59;;;;;;;1.35;0.65;;;23.20;99.90;;;;;;5069885;28;20050;-83
2022/03/04 05:01:26;;;;;;;1.13;0.57;;;23.20;99.90;;;;;;5075272;28;20093;-84
2022/03/04 05:03:54;;;;;;;1.98;0.93;;;23.00;99.90;;;;;;5074461;28;20118;-83
2022/03/04 05:06:24;;;;;;;3.03;0.73;;;22.90;99.90;;;;;;5075418;28;20068;-84
2022/03/04 05:08:51;;;;;;;2.83;0.80;;;22.90;99.90;;;;;;5075022;28;20473;-84
2022/03/04 05:11:19;;;;;;;6.45;1.40;;;22.90;99.90;;;;;;5080470;28;20433;-81
2022/03/04 05:13:47;;;;;;;7.18;0.80;;;22.90;99.90;;;;;;5077588;28;20024;-83
2022/03/04 05:16:14;;;;;;;2.95;0.85;;;22.80;99.90;;;;;;5078060;28;20107;-84
2022/03/04 05:18:42;;;;;;;1.95;1.00;;;22.80;99.90;;;;;;5076741;28;20023;-84
2022/03/04 05:21:09;;;;;;;2.20;0.68;;;22.90;99.90;;;;;;5074449;28;20032;-80
2022/03/04 05:26:21;;;;;;;5.20;1.30;;;23.10;99.90;;;;;;5075270;28;20496;-84
2022/03/04 05:28:50;;;;;;;9.63;1.27;;;23.10;99.90;;;;;;5073368;28;20509;-84
2022/03/04 05:31:17;;;;;;;2.83;0.98;;;23.30;99.90;;;;;;5074759;28;20037;-80
2022/03/04 05:33:45;;;;;;;4.40;1.15;;;23.30;99.90;;;;;;5074984;28;20012;-80
2022/03/04 05:36:12;;;;;;;7.10;1.40;;;23.40;99.90;;;;;;5077483;28;20031;-84
2022/03/04 05:38:39;;;;;;;7.65;1.10;;;23.40;99.90;;;;;;5074908;28;20017;-83
2022/03/04 05:41:07;;;;;;;3.67;0.90;;;23.40;99.90;;;;;;5080347;28;20523;-83
2022/03/04 05:43:34;;;;;;;4.07;1.45;;;23.40;99.90;;;;;;5080343;28;20055;-81
2022/03/04 05:46:01;;;;;;;6.32;1.35;;;23.50;99.90;;;;;;5085071;28;20028;-79
2022/03/04 05:48:29;;;;;;;2.47;0.60;;;23.40;99.90;;;;;;5081927;28;20028;-81
2022/03/04 05:50:56;;;;;;;3.78;1.05;;;23.50;99.90;;;;;;5078823;28;20031;-81
2022/03/04 05:53:27;;;;;;;1.75;0.50;;;23.50;99.90;;;;;;5073919;28;20035;-81
2022/03/04 05:55:54;;;;;;;5.47;1.13;;;23.30;99.90;;;;;;5074295;28;20025;-79
2022/03/04 05:58:21;;;;;;;2.00;0.98;;;23.20;99.90;;;;;;5073111;28;20035;-81
2022/03/04 06:00:49;;;;;;;6.03;1.20;;;23.10;99.90;;;;;;5077486;28;20099;-80
2022/03/04 06:03:16;;;;;;;3.22;0.65;;;23.00;99.90;;;;;;5076296;28;20418;-79
2022/03/04 06:05:43;;;;;;;6.18;0.70;;;22.90;99.90;;;;;;5074635;28;20032;-79
2022/03/04 06:08:11;;;;;;;1.60;0.73;;;22.80;99.90;;;;;;5075203;28;20381;-81
2022/03/04 06:10:38;;;;;;;8.23;1.75;;;22.70;99.90;;;;;;5074387;28;20032;-78
2022/03/04 06:13:07;;;;;;;2.35;1.10;;;22.70;99.90;;;;;;5074146;28;20017;-80
2022/03/04 06:15:34;;;;;;;2.08;0.93;;;22.60;99.90;;;;;;5080367;28;20036;-78
2022/03/04 06:18:02;;;;;;;8.43;1.67;;;22.60;99.90;;;;;;5093518;28;20059;-77
2022/03/04 06:20:29;;;;;;;7.40;1.80;;;22.60;99.90;;;;;;5092485;28;20016;-79
2022/03/04 06:22:58;;;;;;;4.40;1.45;;;22.60;99.90;;;;;;5092815;28;20042;-75
2022/03/04 06:25:26;;;;;;;4.35;1.45;;;22.60;99.90;;;;;;5091177;28;20497;-74
2022/03/04 06:28:01;;;;;;;4.45;1.23;;;22.60;99.90;;;;;;5093155;28;20050;-75
2022/03/04 06:30:31;;;;;;;8.38;1.75;;;22.60;99.90;;;;;;5093026;28;20024;-80
2022/03/04 06:35:45;;;;;;;4.13;1.05;;;22.60;99.90;;;;;;5092540;28;20089;-79
2022/03/04 06:38:13;;;;;;;4.38;1.10;;;22.60;99.90;;;;;;5092037;28;20020;-80
2022/03/04 06:40:45;;;;;;;6.60;1.02;;;22.50;99.90;;;;;;5092006;28;20012;-81
2022/03/04 06:43:12;;;;;;;3.85;1.00;;;22.50;99.90;;;;;;5090570;28;20024;-80
2022/03/04 06:45:42;;;;;;;2.60;0.98;;;22.60;99.90;;;;;;5091919;28;20648;-80
2022/03/04 06:48:11;;;;;;;3.90;1.17;;;22.60;99.90;;;;;;5093770;28;20020;-81
2022/03/04 06:50:38;;;;;;;3.22;1.20;;;22.60;99.90;;;;;;5093758;28;20028;-80
2022/03/04 06:53:06;;;;;;;4.30;1.35;;;22.70;99.90;;;;;;5093627;28;20039;-80
2022/03/04 06:55:34;;;;;;;3.97;1.00;;;22.70;99.90;;;;;;5093941;28;20027;-81
2022/03/04 06:58:01;;;;;;;3.65;1.33;;;22.70;99.90;;;;;;5093761;28;20145;-81
2022/03/04 07:00:29;;;;;;;9.00;1.67;;;22.70;99.90;;;;;;5093854;28;20072;-80
2022/03/04 07:02:57;;;;;;;5.43;1.33;;;22.60;99.90;;;;;;5092166;28;20035;-80
2022/03/04 07:05:24;;;;;;;7.72;1.20;;;22.60;99.90;;;;;;5091348;28;20035;-80
2022/03/04 07:07:54;;;;;;;3.47;1.27;;;22.60;99.90;;;;;;5093251;28;20043;-80
2022/03/04 07:10:22;;;;;;;5.75;1.00;;;22.50;99.90;;;;;;5093197;28;20425;-79
2022/03/04 07:12:50;;;;;;;2.38;1.17;;;22.50;99.90;;;;;;5093385;28;20482;-80
2022/03/04 07:15:19;;;;;;;3.85;0.90;;;22.50;99.90;;;;;;5093039;28;20480;-80
2022/03/04 07:17:47;;;;;;;5.10;1.52;;;22.40;99.90;;;;;;5092742;28;20382;-74
2022/03/04 07:20:15;;;;;;;3.67;0.93;;;22.40;99.90;;;;;;5092450;28;20012;-77
2022/03/04 07:22:44;;;;;;;4.70;1.02;;;22.30;99.90;;;;;;5092036;28;20024;-83
2022/03/04 07:25:13;;;;;;;2.75;1.23;;;22.30;99.90;;;;;;5092108;28;20016;-78
2022/03/04 07:27:40;;;;;;;11.10;1.63;;;22.20;99.90;;;;;;5091680;28;20017;-79
2022/03/04 07:30:10;;;;;;;3.95;1.00;;;22.20;99.90;;;;;;5092180;28;20022;-82
2022/03/04 07:32:39;;;;;;;3.28;0.98;;;22.20;99.90;;;;;;5093081;28;20070;-77
2022/03/04 07:35:10;;;;;;;3.08;1.13;;;22.20;99.90;;;;;;5093025;28;20465;-74
2022/03/04 07:37:38;;;;;;;5.15;1.38;;;22.10;99.90;;;;;;5093090;28;20081;-83
2022/03/04 07:40:07;;;;;;;3.95;1.35;;;22.10;99.90;;;;;;5093080;28;20379;-83
2022/03/04 07:42:35;;;;;;;3.10;1.23;;;22.10;99.90;;;;;;5084090;28;20047;-82
2022/03/04 07:45:03;;;;;;;2.85;1.42;;;22.10;99.90;;;;;;5075308;28;20031;-81
2022/03/04 07:47:31;;;;;;;6.57;1.05;;;22.10;99.90;;;;;;5076218;28;20094;-73
2022/03/04 07:49:58;;;;;;;3.80;1.17;;;22.10;99.90;;;;;;5076396;28;20429;-74
2022/03/04 07:52:31;;;;;;;5.10;0.80;;;22.00;99.90;;;;;;5076051;28;20477;-74
2022/03/04 07:55:08;;;;;;;2.05;0.95;;;22.00;99.90;;;;;;5075753;28;20033;-77
2022/03/04 07:57:36;;;;;;;0.98;0.40;;;22.00;99.90;;;;;;5076148;28;20027;-82
2022/03/04 08:00:06;;;;;;;2.58;0.98;;;22.00;99.90;;;;;;5078073;28;20021;-81
2022/03/04 08:02:33;;;;;;;5.68;1.30;;;22.00;99.90;;;;;;5072987;28;20036;-77
2022/03/04 08:05:01;;;;;;;2.40;0.90;;;22.00;99.90;;;;;;5071732;28;20021;-78
2022/03/04 08:07:29;;;;;;;3.80;1.17;;;21.90;99.90;;;;;;5070749;28;20025;-76
2022/03/04 08:09:56;;;;;;;1.15;0.85;;;21.90;99.90;;;;;;5072201;28;20063;-78
2022/03/04 08:12:25;;;;;;;2.25;0.90;;;21.90;99.90;;;;;;5071295;28;20079;-77
2022/03/04 08:14:53;;;;;;;3.70;1.05;;;21.90;99.90;;;;;;5072238;28;20091;-80
2022/03/04 08:17:20;;;;;;;3.35;1.00;;;21.90;99.90;;;;;;5076688;28;20020;-84
2022/03/04 08:19:48;;;;;;;3.22;0.80;;;21.80;99.90;;;;;;5075013;28;20050;-84
2022/03/04 08:22:15;;;;;;;2.80;0.77;;;21.80;99.90;;;;;;5073578;28;20013;-80
2022/03/04 08:24:42;;;;;;;1.48;0.60;;;21.80;99.90;;;;;;5069860;28;20103;-81
2022/03/04 08:27:10;;;;;;;1.88;0.75;;;21.80;99.90;;;;;;5074976;28;20512;-83
2022/03/04 08:29:37;;;;;;;1.38;0.63;;;21.80;99.90;;;;;;5082774;28;20060;-83
2022/03/04 08:32:05;;;;;;;6.00;0.90;;;21.80;99.90;;;;;;5078899;28;20385;-75
2022/03/04 08:34:32;;;;;;;3.67;0.70;;;21.80;99.90;;;;;;5078995;28;20042;-82
2022/03/04 08:36:59;;;;;;;3.20;0.88;;;21.70;99.90;;;;;;5075363;28;20029;-79
2022/03/04 08:39:27;;;;;;;3.70;1.02;;;21.70;99.90;;;;;;5075888;28;20545;-83
2022/03/04 08:41:54;;;;;;;4.72;1.40;;;21.70;99.90;;;;;;5074373;28;20418;-82
2022/03/04 08:44:21;;;;;;;2.10;0.98;;;21.70;99.90;;;;;;5075997;28;20024;-83
2022/03/04 08:46:49;;;;;;;3.17;1.33;;;21.70;99.90;;;;;;5093313;28;20544;-83
2022/03/04 08:49:19;;;;;;;3.05;1.10;;;21.70;99.90;;;;;;5076507;28;20033;-83
2022/03/04 08:51:47;;;;;;;5.35;1.55;;;21.70;99.90;;;;;;5075813;28;20420;-83
2022/03/04 08:54:14;;;;;;;2.13;1.15;;;21.70;99.90;;;;;;5075424;28;20032;-80
2022/03/04 08:56:41;;;;;;;5.47;1.67;;;21.70;99.90;;;;;;5074890;28;20190;-76
2022/03/04 08:59:09;;;;;;;2.03;1.08;;;21.70;99.90;;;;;;5075282;28;20024;-80
2022/03/04 09:01:36;;;;;;;2.38;0.90;;;21.70;99.90;;;;;;5077917;28;20028;-81
2022/03/04 09:04:03;;;;;;;3.22;0.70;;;21.70;99.90;;;;;;5074855;28;20030;-77
2022/03/04 09:06:31;;;;;;;2.70;1.00;;;21.70;99.90;;;;;;5074813;28;20102;-80
2022/03/04 09:08:59;;;;;;;3.17;0.70;;;21.70;99.90;;;;;;5076568;28;20096;-80
2022/03/04 09:11:26;;;;;;;1.30;0.75;;;21.60;99.90;;;;;;5074572;28;20111;-83
2022/03/04 09:13:53;;;;;;;3.53;0.50;;;21.60;99.90;;;;;;5074942;28;20020;-83
2022/03/04 09:16:21;;;;;;;3.75;0.57;;;21.60;99.90;;;;;;5074557;28;20377;-74
2022/03/04 09:18:48;;;;;;;2.05;0.70;;;21.50;99.90;;;;;;5074566;28;20094;-75
2022/03/04 09:21:16;;;;;;;2.15;1.05;;;21.50;99.90;;;;;;5088240;28;20465;-82
2022/03/04 09:23:43;;;;;;;2.47;0.88;;;21.50;99.90;;;;;;5087665;28;20020;-81
2022/03/04 09:26:10;;;;;;;3.75;1.20;;;21.50;99.90;;;;;;5090047;28;20065;-83
2022/03/04 09:28:38;;;;;;;2.00;0.95;;;21.50;99.90;;;;;;5089989;28;20412;-83
2022/03/04 09:31:06;;;;;;;1.05;0.68;;;21.50;99.90;;;;;;5089864;28;20061;-82
2022/03/04 09:33:33;;;;;;;1.40;0.77;;;21.50;99.90;;;;;;5086728;28;20020;-82
2022/03/04 09:36:00;;;;;;;3.60;1.05;;;21.50;99.90;;;;;;5088077;28;20025;-82
2022/03/04 09:38:28;;;;;;;2.92;0.75;;;21.50;99.90;;;;;;5076902;28;20028;-78
2022/03/04 09:40:56;;;;;;;2.88;0.98;;;21.50;99.90;;;;;;5077422;28;20031;-74
2022/03/04 09:43:23;;;;;;;3.22;1.08;;;21.50;99.90;;;;;;5091212;28;20016;-82
2022/03/04 09:45:51;;;;;;;4.65;1.67;;;21.50;99.90;;;;;;5087699;28;20070;-75
2022/03/04 09:48:19;;;;;;;5.40;1.15;;;21.50;99.90;;;;;;5074788;28;20107;-83
2022/03/04 09:50:48;;;;;;;4.47;1.50;;;21.40;99.90;;;;;;5073148;28;20043;-82
2022/03/04 09:53:17;;;;;;;3.08;1.10;;;21.40;99.90;;;;;;5076570;28;20024;-82
2022/03/04 09:55:45;;;;;;;4.43;1.50;;;21.50;99.90;;;;;;5080188;28;20020;-82
2022/03/04 09:58:19;;;;;;;5.68;1.80;;;21.50;99.90;;;;;;5078264;28;20542;-80
2022/03/04 10:00:47;;;;;;;4.50;1.30;;;21.40;99.90;;;;;;5077327;28;20112;-83
2022/03/04 10:03:40;;;;;;;2.33;1.00;;;21.40;99.90;;;;;;5073408;28;20025;-80
2022/03/04 10:06:08;;;;;;;3.47;1.63;;;21.40;99.90;;;;;;5073081;28;20032;-81
2022/03/04 10:08:46;;;;;;;4.20;1.00;;;21.40;99.90;;;;;;5073746;28;20077;-83
2022/03/04 10:11:24;;;;;;;5.72;1.58;;;21.40;99.90;;;;;;5073955;28;20017;-83
2022/03/04 10:13:54;;;;;;;3.88;1.00;;;21.40;99.90;;;;;;5073838;28;20017;-83
2022/03/04 10:16:26;;;;;;;6.95;1.20;;;21.40;99.90;;;;;;5073512;28;20021;-77
2022/03/04 10:19:06;;;;;;;6.22;1.15;;;21.40;99.90;;;;;;5077033;28;20024;-82
2022/03/04 10:21:48;;;;;;;5.60;1.55;;;21.40;99.90;;;;;;5073899;28;20052;-83
2022/03/04 10:24:17;;;;;;;2.92;1.08;;;21.40;99.90;;;;;;5073084;28;20374;-75
2022/03/04 10:26:45;;;;;;;4.18;1.25;;;21.40;99.90;;;;;;5074374;28;20025;-82
2022/03/04 10:29:26;;;;;;;2.30;0.80;;;21.40;99.90;;;;;;5072055;28;20389;-82
2022/03/04 10:32:19;;;;;;;1.75;0.98;;;21.40;99.90;;;;;;5073360;28;20037;-80
2022/03/04 10:34:52;;;;;;;2.88;1.00;;;21.40;99.90;;;;;;5073205;28;20032;-83
2022/03/04 10:37:41;;;;;;;3.92;1.17;;;21.40;99.90;;;;;;5073040;28;20138;-83
2022/03/04 10:40:15;;;;;;;6.05;1.42;;;21.30;99.90;;;;;;5073318;28;20092;-83
2022/03/04 10:42:48;;;;;;;3.15;0.95;;;21.40;99.90;;;;;;5073104;28;20043;-82
2022/03/04 10:45:19;;;;;;;4.45;1.45;;;21.30;99.90;;;;;;5073187;28;20021;-83
2022/03/04 10:47:49;;;;;;;5.00;1.67;;;21.30;99.90;;;;;;5072774;28;20117;-82
2022/03/04 10:50:28;;;;;;;8.95;1.40;;;21.30;99.90;;;;;;5072609;28;20131;-82
2022/03/04 10:53:01;;;;;;;5.80;1.40;;;21.30;99.90;;;;;;5076195;28;20191;-79
2022/03/04 10:55:42;;;;;;;5.93;1.25;;;21.30;99.90;;;;;;5072500;28;20017;-80
2022/03/04 10:58:17;;;;;;;4.05;1.50;;;21.30;99.90;;;;;;5072665;28;20095;-83
2022/03/04 11:01:09;;;;;;;3.95;1.35;;;21.30;99.90;;;;;;5072617;28;20032;-82
2022/03/04 11:03:39;;;;;;;6.68;2.20;;;21.30;99.90;;;;;;5069738;28;20087;-77
2022/03/04 11:06:09;;;;;;;4.65;1.98;;;21.30;99.90;;;;;;5072555;28;20028;-82
2022/03/04 11:08:36;;;;;;;4.68;1.67;;;21.30;99.90;;;;;;5071662;28;20759;-83
2022/03/04 11:11:05;;;;;;;5.10;1.88;;;21.30;99.90;;;;;;5072577;28;20035;-82
2022/03/04 11:13:34;;;;;;;4.40;1.50;;;21.30;99.90;;;;;;5072828;28;20025;-78
2022/03/04 11:16:06;;;;;;;4.63;1.75;;;21.30;99.90;;;;;;5073209;28;20054;-80
2022/03/04 11:18:37;;;;;;;6.20;1.55;;;21.30;99.90;;;;;;5072392;28;20035;-83
2022/03/04 11:21:05;;;;;;;4.13;1.63;;;21.30;99.90;;;;;;5072524;28;20023;-82
2022/03/04 11:23:35;;;;;;;4.30;2.13;;;21.30;99.90;;;;;;5087790;28;20028;-83
2022/03/04 11:26:18;;;;;;;3.10;1.70;;;21.30;99.90;;;;;;5092804;28;20081;-77
2022/03/04 11:28:54;;;;;;;7.43;2.08;;;21.30;99.90;;;;;;5089900;28;20024;-79
2022/03/04 11:31:21;;;;;;;;;;;21.30;99.90;;;;;;5091839;28;20051;-83
2022/03/04 11:33:54;;;;;;;4.10;1.70;;;21.30;99.90;;;;;;5092812;28;19959;-83
2022/03/04 11:36:36;;;;;;;4.55;2.03;;;21.20;99.90;;;;;;5092099;28;20031;-83
2022/03/04 11:39:16;;;;;;;5.78;1.90;;;21.30;99.90;;;;;;5091546;28;20020;-74
2022/03/04 11:41:49;;;;;;;3.40;1.83;;;21.30;99.90;;;;;;5092124;28;20025;-83
2022/03/04 11:44:24;;;;;;;4.53;2.20;;;21.20;99.90;;;;;;5088176;28;20039;-84
2022/03/04 11:47:02;;;;;;;6.60;2.80;;;21.30;99.90;;;;;;5090552;28;20362;-86
2022/03/04 11:49:39;;;;;;;3.20;1.92;;;21.20;99.90;;;;;;5092842;28;20143;-74
2022/03/04 11:52:24;;;;;;;6.18;2.17;;;21.30;99.90;;;;;;5093088;28;20028;-83
2022/03/04 11:54:54;;;;;;;5.13;2.27;;;21.20;99.90;;;;;;5090364;28;20064;-73
2022/03/04 11:57:25;;;;;;;6.22;2.80;;;21.20;99.90;;;;;;5093081;28;20295;-86
2022/03/04 12:00:17;;;;;;;9.07;2.72;;;21.30;99.90;;;;;;5091190;28;20051;-83
2022/03/04 12:02:46;;;;;;;8.80;3.08;;;21.30;99.90;;;;;;5092707;28;20095;-76
2022/03/04 12:05:30;;;;;;;5.53;2.92;;;21.30;99.90;;;;;;5092424;28;20035;-77
2022/03/04 12:07:57;;;;;;;6.20;2.55;;;21.20;99.90;;;;;;5091672;28;20035;-83
2022/03/04 12:10:53;;;;;;;4.22;2.72;;;21.30;99.90;;;;;;5092590;28;20090;-80
2022/03/04 12:13:27;;;;;;;8.55;3.38;;;21.20;99.90;;;;;;5089833;28;20439;-78
2022/03/04 12:15:57;;;;;;;5.00;2.80;;;21.30;99.90;;;;;;5092797;28;20020;-73
2022/03/04 12:18:31;;;;;;;8.52;3.10;;;21.30;99.90;;;;;;5093115;28;20024;-77
2022/03/04 12:21:01;;;;;;;6.38;3.45;;;21.20;99.90;;;;;;5093313;28;20020;-81
2022/03/04 12:23:33;;;;;;;4.03;3.20;;;21.30;99.90;;;;;;5093288;28;20036;-85
2022/03/04 12:26:00;;;;;;;7.40;3.47;;;21.30;99.90;;;;;;5093120;28;20036;-84
2022/03/04 12:28:41;;;;;;;7.15;3.35;;;21.20;99.90;;;;;;5093247;28;20505;-85
2022/03/04 12:31:18;;;;;;;6.68;2.28;;;21.30;99.90;;;;;;5093488;28;20469;-86
2022/03/04 12:33:58;;;;;;;7.75;2.72;;;21.20;99.90;;;;;;5093181;28;20107;-85
2022/03/04 12:36:28;;;;;;;5.07;2.28;;;21.20;99.90;;;;;;5093192;28;20445;-74
2022/03/04 12:39:01;;;;;;;3.55;2.00;;;21.20;99.90;;;;;;5092978;28;20023;-85
2022/03/04 12:41:31;;;;;;;3.70;2.10;;;21.20;99.90;;;;;;5093294;28;20484;-86
2022/03/04 12:44:09;;;;;;;5.45;2.25;;;21.20;99.90;;;;;;5093112;28;20139;-86
2022/03/04 12:46:40;;;;;;;3.35;1.58;;;21.20;99.90;;;;;;5093129;28;20111;-85
2022/03/04 12:49:09;;;;;;;3.33;1.83;;;21.20;99.90;;;;;;5092612;28;20055;-85
2022/03/04 12:51:39;;;;;;;4.18;2.38;;;21.20;99.90;;;;;;5093095;28;20032;-86
2022/03/04 12:54:17;;;;;;;3.97;2.40;;;21.20;99.90;;;;;;5093095;28;20066;-85
2022/03/04 12:56:56;;;;;;;5.05;2.70;;;21.20;99.90;;;;;;5092954;28;20020;-77
2022/03/04 12:59:24;;;;;;;3.75;1.83;;;21.20;99.90;;;;;;5092809;28;20476;-86
2022/03/04 13:01:53;;;;;;;6.50;2.60;;;21.20;99.90;;;;;;5091524;28;20032;-77
2022/03/04 13:04:21;;;;;;;2.47;2.08;;;21.20;99.90;;;;;;5092842;28;20499;-85